Time;durP1;ratioP1;P1;durP2;ratioP2;P2;SDS_P1;SDS_P2;PMS_P1;PMS_P2;Temp;Humidity;BMP_temperature;BMP_pressure;BME280_temperature;BME280_humidity;BME280_pressure;Samples;Min_cycle;Max_cycle;Signal;HPM_P1;HPM_P2
2023/09/09 18:20:48;;;;;;;41.70;16.30;;;;;;;10.59;100.00;101636.03;107846;1273;72549;-76
2023/09/09 18:23:14;;;;;;;39.80;16.70;;;;;;;10.44;100.00;101636.86;105452;1271;62381;-76
2023/09/09 18:25:39;;;;;;;43.00;17.70;;;;;;;10.36;100.00;101635.02;105135;1279;61408;-78
2023/09/09 18:28:05;;;;;;;54.10;18.80;;;;;;;10.27;100.00;101638.33;106226;1269;61306;-79
2023/09/09 18:30:31;;;;;;;46.80;17.00;;;;;;;10.18;100.00;101638.91;105487;1273;61726;-78
2023/09/09 18:32:56;;;;;;;51.10;18.00;;;;;;;10.12;100.00;101634.28;105500;1273;61298;-78
2023/09/09 18:35:22;;;;;;;53.30;18.90;;;;;;;10.06;100.00;101635.05;105411;1273;61275;-78
2023/09/09 18:37:48;;;;;;;50.80;18.40;;;;;;;9.94;100.00;101631.95;105103;1269;61385;-78
2023/09/09 18:40:14;;;;;;;52.30;18.00;;;;;;;9.85;100.00;101635.48;105595;1274;61402;-78
2023/09/09 18:42:39;;;;;;;43.30;17.00;;;;;;;9.74;100.00;101641.06;105527;1269;61395;-79
2023/09/09 18:45:06;;;;;;;49.00;17.40;;;;;;;9.64;100.00;101642.92;105423;1274;61337;-79
2023/09/09 18:47:31;;;;;;;44.40;16.20;;;;;;;9.55;100.00;101642.84;105266;1270;61403;-79
2023/09/09 18:49:57;;;;;;;39.20;16.20;;;;;;;9.45;100.00;101644.99;105405;1273;61386;-78
2023/09/09 18:52:22;;;;;;;49.10;16.80;;;;;;;9.39;100.00;101647.48;105394;1269;61396;-79
2023/09/09 18:54:48;;;;;;;43.80;16.20;;;;;;;9.33;100.00;101647.45;105425;1269;61365;-79
2023/09/09 18:57:15;;;;;;;32.00;14.70;;;;;;;9.23;100.00;101649.52;105485;1270;61360;-79
2023/09/09 18:59:41;;;;;;;38.80;13.70;;;;;;;9.16;100.00;101643.18;105553;1270;61365;-78
2023/09/09 19:02:07;;;;;;;30.00;13.20;;;;;;;9.14;100.00;101647.05;105629;1275;61392;-79
2023/09/09 19:04:32;;;;;;;29.70;10.70;;;;;;;9.12;100.00;101646.91;105413;1273;61322;-79
2023/09/09 19:06:58;;;;;;;33.50;11.60;;;;;;;9.09;100.00;101645.54;105430;1276;61319;-79
2023/09/09 19:09:24;;;;;;;21.90;9.30;;;;;;;9.06;100.00;101645.17;105457;1274;61362;-79
2023/09/09 19:11:52;;;;;;;26.90;7.50;;;;;;;9.00;100.00;101643.05;105535;1274;61363;-79
2023/09/09 19:14:18;;;;;;;21.10;9.10;;;;;;;8.94;100.00;101644.26;105358;1274;73902;-79
2023/09/09 19:16:43;;;;;;;24.60;8.90;;;;;;;8.89;100.00;101642.12;105570;1269;61365;-79
2023/09/09 19:19:09;;;;;;;17.50;7.60;;;;;;;8.85;100.00;101643.95;105375;1274;61323;-78
2023/09/09 19:21:34;;;;;;;13.10;6.60;;;;;;;8.80;100.00;101649.10;105398;1275;61384;-78
2023/09/09 19:24:00;;;;;;;12.20;5.50;;;;;;;8.97;100.00;101652.20;105360;1275;61384;-79
2023/09/09 19:26:26;;;;;;;12.90;5.40;;;;;;;8.89;100.00;101653.73;105103;1275;61573;-78
2023/09/09 19:28:52;;;;;;;12.20;5.40;;;;;;;8.84;100.00;101656.38;104983;1277;61465;-78
2023/09/09 19:34:22;;;;;;;9.10;4.40;;;;;;;8.76;100.00;101661.63;103102;1287;602188;-79
2023/09/09 19:36:47;;;;;;;9.30;3.90;;;;;;;8.68;100.00;101665.35;102954;1295;60524;-79
2023/09/09 19:39:14;;;;;;;14.50;4.10;;;;;;;8.62;100.00;101666.55;103231;1288;60433;-79
2023/09/09 19:41:40;;;;;;;6.50;3.70;;;;;;;8.56;100.00;101667.48;103100;1295;60432;-79
2023/09/09 19:44:05;;;;;;;10.70;3.80;;;;;;;8.53;100.00;101669.15;103178;1292;60412;-79
2023/09/09 19:46:31;;;;;;;12.90;4.00;;;;;;;8.49;100.00;101665.27;103364;1288;60404;-79
2023/09/09 19:48:56;;;;;;;7.40;3.90;;;;;;;8.45;100.00;101668.10;103076;1285;404245;-79
2023/09/09 19:51:22;;;;;;;8.00;3.60;;;;;;;8.38;100.00;101664.39;103391;1285;61063;-79
2023/09/09 19:53:48;;;;;;;7.40;4.10;;;;;;;8.34;100.00;101667.45;103440;1292;60269;-79
2023/09/09 19:56:15;;;;;;;9.90;3.80;;;;;;;8.30;100.00;101664.27;103418;1290;60543;-79
2023/09/09 19:58:41;;;;;;;11.50;4.50;;;;;;;8.25;100.00;101665.87;103593;1289;60433;-79
2023/09/09 20:01:06;;;;;;;12.30;4.10;;;;;;;8.21;100.00;101669.70;103545;1286;60441;-79
2023/09/09 20:03:36;;;;;;;8.30;4.50;;;;;;;8.16;100.00;101677.32;103276;1291;60410;-79
2023/09/09 20:06:03;;;;;;;12.40;4.40;;;;;;;8.11;100.00;101683.34;103196;1285;73995;-79
2023/09/09 20:08:30;;;;;;;16.60;5.20;;;;;;;8.11;100.00;101683.65;103423;1290;61328;-79
2023/09/09 20:10:55;;;;;;;9.50;4.80;;;;;;;8.09;100.00;101681.00;103304;1286;60513;-79
2023/09/09 20:13:22;;;;;;;14.00;5.30;;;;;;;8.06;100.00;101684.02;103209;1292;60412;-79
2023/09/09 20:15:52;;;;;;;12.70;4.60;;;;;;;8.08;100.00;101689.81;103115;1285;60772;-79
2023/09/09 20:18:18;;;;;;;10.60;4.20;;;;;;;8.06;100.00;101691.48;103480;1285;72878;-79
2023/09/09 20:20:45;;;;;;;17.60;4.50;;;;;;;8.00;100.00;101694.66;103016;1285;60412;-79
2023/09/09 20:23:10;;;;;;;18.60;5.00;;;;;;;7.96;100.00;101694.42;103364;1285;60370;-79
2023/09/09 20:25:38;;;;;;;12.00;4.70;;;;;;;7.88;100.00;101695.75;103359;1290;60370;-79
2023/09/09 20:28:05;;;;;;;13.50;4.40;;;;;;;7.87;100.00;101701.28;103065;1285;60800;-79
2023/09/09 20:30:30;;;;;;;9.90;4.30;;;;;;;7.85;100.00;101700.73;103023;1293;60577;-79
2023/09/09 20:32:56;;;;;;;13.40;5.00;;;;;;;7.80;100.00;101705.58;103241;1285;60419;-79
2023/09/09 20:35:21;;;;;;;9.00;4.60;;;;;;;7.74;100.00;101708.45;103393;1290;60404;-79
2023/09/09 20:37:50;;;;;;;11.80;5.70;;;;;;;7.68;100.00;101701.13;103372;1286;60512;-79
2023/09/09 20:40:23;;;;;;;13.50;5.10;;;;;;;7.71;100.00;101703.85;103593;1285;60425;-79
2023/09/09 20:42:57;;;;;;;10.50;5.10;;;;;;;7.69;100.00;101703.60;103390;1285;73870;-79
2023/09/09 20:45:24;;;;;;;10.50;5.10;;;;;;;7.70;100.00;101704.52;103402;1289;62781;-79
2023/09/09 20:47:50;;;;;;;13.20;5.30;;;;;;;7.67;100.00;101706.04;103165;1290;61451;-79
2023/09/09 20:50:18;;;;;;;11.50;5.30;;;;;;;7.67;100.00;101702.65;103116;1287;60402;-79
2023/09/09 20:52:45;;;;;;;15.40;5.20;;;;;;;7.68;100.00;101707.53;103372;1288;74689;-79
2023/09/09 20:55:11;;;;;;;13.90;6.10;;;;;;;7.64;100.00;101706.64;103310;1287;73948;-79
2023/09/09 20:57:38;;;;;;;16.30;6.80;;;;;;;7.62;100.00;101703.34;103065;1289;60440;-79
2023/09/09 21:00:10;;;;;;;16.00;6.50;;;;;;;7.61;100.00;101703.27;103352;1289;60440;-79
2023/09/09 21:02:40;;;;;;;20.40;6.10;;;;;;;7.57;100.00;101696.52;103356;1287;73905;-79
2023/09/09 21:05:06;;;;;;;17.50;6.20;;;;;;;7.52;100.00;101700.17;103374;1286;75002;-79
2023/09/09 21:07:32;;;;;;;12.10;5.80;;;;;;;7.49;100.00;101700.84;103105;1286;60323;-79
2023/09/09 21:09:59;;;;;;;13.50;6.60;;;;;;;7.49;100.00;101695.88;103292;1286;60580;-79
2023/09/09 21:12:25;;;;;;;11.60;6.00;;;;;;;7.49;100.00;101699.06;103362;1289;60403;-79
2023/09/09 21:14:50;;;;;;;16.40;6.10;;;;;;;7.48;100.00;101695.43;103272;1287;60410;-78
2023/09/09 21:17:16;;;;;;;16.50;6.40;;;;;;;7.41;100.00;101698.14;103313;1289;60470;-78
2023/09/09 21:19:42;;;;;;;19.30;6.10;;;;;;;7.37;100.00;101699.55;103207;1291;60331;-78
2023/09/09 21:22:07;;;;;;;14.20;6.00;;;;;;;7.35;100.00;101701.58;103143;1291;60412;-78
2023/09/09 21:28:08;;;;;;;14.60;6.00;;;;;;;7.33;100.00;101702.74;103479;1284;600385;-78
2023/09/09 21:30:34;;;;;;;12.60;6.40;;;;;;;7.27;100.00;101701.77;103491;1289;60343;-78
2023/09/09 21:32:59;;;;;;;17.80;6.70;;;;;;;7.27;100.00;101700.52;103556;1291;60190;-78
2023/09/09 21:35:25;;;;;;;13.00;5.30;;;;;;;7.23;100.00;101704.66;103489;1291;60478;-78
2023/09/09 21:37:50;;;;;;;13.90;6.00;;;;;;;7.21;100.00;101706.11;103511;1289;61990;-78
2023/09/09 21:40:16;;;;;;;10.50;5.40;;;;;;;7.20;100.00;101701.45;103454;1286;60355;-78
2023/09/09 21:42:42;;;;;;;12.20;5.90;;;;;;;7.18;100.00;101701.25;103650;1282;330999;-79
2023/09/09 21:45:08;;;;;;;12.80;6.40;;;;;;;7.15;100.00;101700.27;103876;1286;60375;-79
2023/09/09 21:47:34;;;;;;;14.60;5.80;;;;;;;7.16;100.00;101699.56;103760;1287;60365;-79
2023/09/09 21:49:59;;;;;;;13.90;6.00;;;;;;;7.12;100.00;101699.58;103380;1288;61103;-78
2023/09/09 21:52:25;;;;;;;11.90;5.90;;;;;;;7.11;100.00;101699.13;103707;1288;60473;-78
2023/09/09 21:54:51;;;;;;;13.10;6.00;;;;;;;7.04;100.00;101700.17;103372;1290;72621;-79
2023/09/09 21:57:16;;;;;;;14.20;6.20;;;;;;;7.00;100.00;101700.21;103866;1287;60401;-78
2023/09/09 21:59:42;;;;;;;9.90;5.30;;;;;;;6.98;100.00;101702.27;103887;1288;60363;-79
2023/09/09 22:02:07;;;;;;;10.10;5.50;;;;;;;6.95;100.00;101702.37;103406;1300;60372;-78
2023/09/09 22:04:33;;;;;;;11.20;5.40;;;;;;;6.93;100.00;101702.33;103761;1282;60348;-79
2023/09/09 22:10:30;;;;;;;11.00;5.40;;;;;;;6.90;100.00;101701.84;102937;1289;600319;-79
2023/09/09 22:12:55;;;;;;;10.10;5.40;;;;;;;6.86;100.00;101702.50;103448;1286;60364;-79
2023/09/09 22:15:21;;;;;;;10.50;5.40;;;;;;;6.83;100.00;101700.39;103367;1286;60424;-79
2023/09/09 22:17:46;;;;;;;9.80;5.30;;;;;;;6.76;100.00;101702.63;103318;1292;60414;-79
2023/09/09 22:20:12;;;;;;;9.80;5.20;;;;;;;6.76;100.00;101701.55;103396;1292;60576;-79
2023/09/09 22:22:39;;;;;;;12.40;5.60;;;;;;;6.72;100.00;101702.69;103397;1286;60357;-79
2023/09/09 22:25:08;;;;;;;9.50;4.70;;;;;;;6.68;100.00;101704.90;103170;1286;471139;-79
2023/09/09 22:27:34;;;;;;;11.10;5.30;;;;;;;6.68;100.00;101704.36;103544;1286;73649;-79
2023/09/09 22:29:59;;;;;;;9.80;5.00;;;;;;;6.70;100.00;101706.35;103481;1289;60434;-79
2023/09/09 22:32:25;;;;;;;11.50;4.60;;;;;;;6.70;100.00;101703.29;103453;1286;60408;-79
2023/09/09 22:34:54;;;;;;;8.70;4.40;;;;;;;6.68;100.00;101705.39;103987;1289;60401;-80
2023/09/09 22:37:20;;;;;;;9.50;4.70;;;;;;;6.68;100.00;101705.14;103779;1286;60782;-80
2023/09/09 22:39:46;;;;;;;12.10;4.90;;;;;;;6.72;100.00;101707.79;103745;1289;60420;-79
2023/09/09 22:42:11;;;;;;;8.60;4.90;;;;;;;6.76;100.00;101709.17;103597;1289;60391;-80
2023/09/09 22:44:37;;;;;;;9.50;4.70;;;;;;;6.75;100.00;101702.96;103562;1289;60410;-79
2023/09/09 22:47:03;;;;;;;11.70;5.10;;;;;;;6.75;100.00;101710.38;103097;1289;60380;-81
2023/09/09 22:49:28;;;;;;;9.10;4.90;;;;;;;6.76;100.00;101704.33;103831;1288;74406;-79
2023/09/09 22:51:54;;;;;;;10.50;5.00;;;;;;;6.77;100.00;101701.96;103678;1286;60344;-79
2023/09/09 22:54:19;;;;;;;9.00;4.70;;;;;;;6.74;100.00;101700.19;103767;1289;60414;-80
2023/09/09 22:56:45;;;;;;;12.50;4.70;;;;;;;6.72;100.00;101699.63;103722;1286;60533;-80
2023/09/09 22:59:11;;;;;;;9.50;4.80;;;;;;;6.69;100.00;101700.86;103513;1286;61703;-79
2023/09/09 23:01:36;;;;;;;12.00;5.40;;;;;;;6.64;100.00;101699.71;103414;1286;74754;-79
2023/09/09 23:04:02;;;;;;;14.50;5.00;;;;;;;6.63;100.00;101701.52;103497;1286;60420;-80
2023/09/09 23:06:28;;;;;;;9.90;5.00;;;;;;;6.62;100.00;101703.38;103446;1286;60420;-79
2023/09/09 23:08:53;;;;;;;13.10;4.80;;;;;;;6.56;100.00;101703.23;103007;1292;60421;-79
2023/09/09 23:11:19;;;;;;;10.10;4.90;;;;;;;6.48;100.00;101701.92;103187;1290;60449;-80
2023/09/09 23:13:44;;;;;;;12.90;5.40;;;;;;;6.43;100.00;101699.70;103475;1289;73381;-79
2023/09/09 23:16:10;;;;;;;11.20;4.50;;;;;;;6.43;100.00;101700.45;103474;1286;60364;-80
2023/09/09 23:18:37;;;;;;;8.80;4.80;;;;;;;6.42;100.00;101695.79;103583;1286;60410;-80
2023/09/09 23:21:03;;;;;;;11.30;5.20;;;;;;;6.43;100.00;101698.35;103063;1294;60648;-79
2023/09/09 23:23:29;;;;;;;9.90;5.00;;;;;;;6.43;100.00;101696.86;103138;1286;60452;-80
2023/09/09 23:29:49;;;;;;;9.80;4.90;;;;;;;6.41;100.00;101697.52;102909;1290;616373;-78
2023/09/09 23:35:46;;;;;;;11.60;4.90;;;;;;;6.44;100.00;101695.09;102973;1292;600143;-80
2023/09/09 23:38:11;;;;;;;10.50;4.90;;;;;;;6.39;100.00;101697.03;103393;1289;60412;-79
2023/09/09 23:40:37;;;;;;;9.90;4.00;;;;;;;6.35;100.00;101697.27;103455;1289;60371;-79
2023/09/09 23:43:02;;;;;;;11.50;5.00;;;;;;;6.33;100.00;101695.45;106182;1295;58243;-81
2023/09/09 23:45:28;;;;;;;8.00;4.40;;;;;;;6.41;100.00;101695.78;106338;1288;58392;-81
2023/09/09 23:47:53;;;;;;;11.20;5.10;;;;;;;6.42;100.00;101697.73;106537;1288;59303;-80
2023/09/09 23:50:19;;;;;;;11.30;5.30;;;;;;;6.46;100.00;101702.47;106491;1285;382788;-80
2023/09/09 23:52:44;;;;;;;11.10;5.00;;;;;;;6.45;100.00;101701.77;106759;1286;58362;-80
2023/09/09 23:55:10;;;;;;;11.50;4.90;;;;;;;6.48;100.00;101703.88;106749;1285;58114;-80
2023/09/09 23:57:36;;;;;;;10.00;5.10;;;;;;;6.53;100.00;101701.77;106750;1285;58179;-81
